Terminal Aerodrome Forecast
Issued by NWS Brownsville, TX

Home | Current Version | Previous Version | Text Only | Print | Product List | Glossary On
Versions: 1 2 3 4 5 6 7 8 9 10 11 12 13 14 15 16 17 18 19 20 21 22 23
000
FTUS44 KBRO 301120
TAFBRO
TAF
KBRO 301120Z 3012/3112 13003KT P6SM FEW017 SCT023
     FM301500 14009KT P6SM OVC025
     FM301800 13013KT P6SM OVC050
     FM310000 12010KT P6SM BKN100=

USA.gov is the U.S. government's official web portal to all federal, state and local government web resources and services.